Time;durP1;ratioP1;P1;durP2;ratioP2;P2;SDS_P1;SDS_P2;PMS_P1;PMS_P2;Temp;Humidity;BMP_temperature;BMP_pressure;BME280_temperature;BME280_humidity;BME280_pressure;Samples;Min_cycle;Max_cycle;Signal;HPM_P1;HPM_P2
2022/09/18 00:04:24;;;;;;;0.20;0.20;;;;;;;17.88;86.78;100977.09;20718115;28;20108;-74
2022/09/18 00:14:25;;;;;;;0.15;0.10;;;;;;;17.69;86.83;100958.03;20698505;28;20132;-74
2022/09/18 00:24:27;;;;;;;0.55;0.20;;;;;;;17.87;86.87;100970.00;20716445;28;20053;-74
2022/09/18 00:34:28;;;;;;;0.20;0.20;;;;;;;17.81;86.81;100950.72;20715223;28;20046;-74
2022/09/18 00:44:35;;;;;;;0.30;0.30;;;;;;;17.86;86.80;100973.69;20714497;28;20406;-75
2022/09/18 00:54:39;;;;;;;0.30;0.10;;;;;;;17.86;86.90;100973.69;20696823;28;20057;-74
2022/09/18 01:04:41;;;;;;;0.10;0.10;;;;;;;17.86;86.66;100979.06;20680237;28;20132;-74
2022/09/18 01:15:01;;;;;;;0.63;0.20;;;;;;;17.85;86.81;100975.50;20695604;28;20445;-75
2022/09/18 01:25:13;;;;;;;0.20;0.15;;;;;;;17.81;86.76;100969.56;20776228;28;20073;-74
2022/09/18 01:35:35;;;;;;;0.10;0.10;;;;;;;17.83;86.82;101002.59;20777530;28;20391;-75
2022/09/18 01:45:47;;;;;;;1.05;0.20;;;;;;;17.85;86.66;100988.16;20712996;28;20045;-75
2022/09/18 01:56:00;;;;;;;0.52;0.17;;;;;;;17.77;86.69;100965.44;20677490;28;20414;-74
2022/09/18 02:06:06;;;;;;;0.30;0.20;;;;;;;17.68;86.85;100944.72;20692891;28;20077;-74
2022/09/18 02:16:13;;;;;;;0.20;0.20;;;;;;;17.83;86.65;100955.94;20692574;28;20041;-74
2022/09/18 02:26:17;;;;;;;0.17;0.10;;;;;;;17.66;86.72;100920.59;20660540;28;20250;-74
2022/09/18 02:36:46;;;;;;;0.95;0.03;;;;;;;17.79;86.58;100935.66;20763729;28;20045;-74
2022/09/18 02:46:54;;;;;;;0.30;0.10;;;;;;;17.83;86.59;100929.03;20690939;28;20046;-75
2022/09/18 02:56:59;;;;;;;0.60;0.30;;;;;;;17.59;86.55;100886.25;20806506;28;20462;-74
2022/09/18 03:07:01;;;;;;;;;;;;;;;17.80;86.67;100922.09;20733341;28;20124;-74
2022/09/18 03:17:03;;;;;;;0.20;0.20;;;;;;;17.80;86.65;100931.97;20688088;28;20004;-74
2022/09/18 03:27:06;;;;;;;0.40;0.10;;;;;;;17.78;86.63;100934.81;20770740;28;20057;-74
2022/09/18 03:37:07;;;;;;;0.10;0.10;;;;;;;17.79;86.69;100925.75;20785536;28;20069;-74
2022/09/18 03:47:09;;;;;;;0.10;0.10;;;;;;;17.63;86.56;100885.00;20768748;28;20048;-75
2022/09/18 03:57:11;;;;;;;0.28;0.13;;;;;;;17.79;86.63;100908.75;20775164;28;20107;-75
2022/09/18 04:07:33;;;;;;;0.10;0.10;;;;;;;17.73;86.55;100915.53;20769895;28;20057;-74
2022/09/18 04:18:10;;;;;;;0.22;0.10;;;;;;;17.68;86.66;100897.09;20721352;28;20050;-74
2022/09/18 04:28:12;;;;;;;0.25;0.10;;;;;;;17.64;86.25;100894.78;20720060;28;20049;-74
2022/09/18 04:38:18;;;;;;;0.20;0.20;;;;;;;17.77;86.60;100911.59;20717680;28;20396;-74
2022/09/18 04:48:20;;;;;;;0.15;0.15;;;;;;;17.76;86.63;100899.09;20715991;28;20071;-74
2022/09/18 04:58:22;;;;;;;0.20;0.10;;;;;;;17.62;86.46;100878.78;20699280;28;20057;-74
2022/09/18 05:08:31;;;;;;;0.20;0.20;;;;;;;17.76;86.37;100888.34;20715564;28;20414;-74
2022/09/18 05:18:34;;;;;;;0.43;0.40;;;;;;;17.65;86.46;100885.72;20714848;28;20141;-74
2022/09/18 05:28:37;;;;;;;0.47;0.15;;;;;;;17.76;86.48;100909.00;20761275;28;20107;-74
2022/09/18 05:38:38;;;;;;;0.32;0.10;;;;;;;17.67;86.80;100891.81;20775927;28;20096;-74
2022/09/18 05:48:43;;;;;;;0.28;0.10;;;;;;;17.76;86.29;100904.50;20777126;28;20056;-75
2022/09/18 05:58:45;;;;;;;0.40;0.10;;;;;;;17.76;86.53;100925.16;20744031;28;20065;-74
2022/09/18 06:08:47;;;;;;;0.17;0.10;;;;;;;17.75;86.43;100918.94;20779794;28;20081;-74
2022/09/18 06:18:49;;;;;;;0.17;0.10;;;;;;;17.55;86.25;100877.63;20791964;28;20459;-74
2022/09/18 06:28:51;;;;;;;0.60;0.10;;;;;;;17.75;86.54;100916.25;20791033;28;20059;-74
2022/09/18 06:38:53;;;;;;;0.35;0.20;;;;;;;17.60;86.47;100894.22;20773633;28;20073;-75
2022/09/18 06:48:56;;;;;;;0.13;0.10;;;;;;;17.75;86.32;100910.88;20789515;28;20513;-74
2022/09/18 06:58:57;;;;;;;0.95;0.20;;;;;;;17.74;86.36;100911.84;20789242;28;20041;-74
2022/09/18 07:08:59;;;;;;;0.40;0.20;;;;;;;17.74;86.47;100914.53;20788294;28;20061;-74
2022/09/18 07:19:21;;;;;;;0.30;0.10;;;;;;;17.74;86.37;100895.69;20719090;28;20052;-74
2022/09/18 07:29:23;;;;;;;0.20;0.10;;;;;;;17.73;86.55;100888.59;20691149;28;20061;-74
2022/09/18 07:39:26;;;;;;;0.20;0.20;;;;;;;17.73;86.27;100894.00;20722000;28;20057;-74
2022/09/18 07:49:50;;;;;;;0.22;0.20;;;;;;;17.73;86.27;100902.06;20696518;28;20037;-74
2022/09/18 07:59:52;;;;;;;0.20;0.10;;;;;;;17.73;86.34;100909.28;20700084;28;20053;-74
2022/09/18 08:09:55;;;;;;;0.10;0.10;;;;;;;17.73;86.43;100926.31;20719809;28;20050;-74
2022/09/18 08:20:26;;;;;;;0.10;0.10;;;;;;;17.73;86.45;100914.66;20654081;28;20037;-74
2022/09/18 08:30:35;;;;;;;0.30;0.20;;;;;;;17.72;86.34;100905.75;20718036;28;20127;-74
2022/09/18 08:40:41;;;;;;;0.10;0.10;;;;;;;17.72;86.26;100896.81;20717380;28;20108;-74
2022/09/18 08:50:58;;;;;;;0.20;0.20;;;;;;;17.72;86.58;100907.56;20716896;28;20429;-74
2022/09/18 09:01:14;;;;;;;0.20;0.10;;;;;;;17.69;86.25;100903.34;20773990;27;20405;-75
2022/09/18 09:11:52;;;;;;;0.52;0.20;;;;;;;17.72;86.35;100913.84;20754848;27;20521;-75
2022/09/18 09:22:06;;;;;;;0.20;0.10;;;;;;;17.69;86.27;100904.16;20853391;27;20117;-75
2022/09/18 09:32:21;;;;;;;0.10;0.10;;;;;;;17.72;86.28;100902.19;20752158;27;20137;-74
2022/09/18 09:42:53;;;;;;;0.10;0.10;;;;;;;17.72;86.20;100912.97;20943467;27;20047;-75
2022/09/18 09:52:57;;;;;;;0.40;0.10;;;;;;;17.71;86.23;100920.19;21196570;27;20055;-75
2022/09/18 10:03:18;;;;;;;0.22;0.17;;;;;;;17.71;86.26;100916.63;21261727;27;20039;-74
2022/09/18 10:13:38;;;;;;;0.47;0.40;;;;;;;17.66;86.16;100915.22;21223890;27;20051;-75
2022/09/18 10:23:41;;;;;;;0.20;0.10;;;;;;;17.71;86.26;100905.88;21206581;27;20067;-75
2022/09/18 10:33:48;;;;;;;0.32;0.20;;;;;;;17.70;86.24;100905.03;21222046;27;20039;-75
2022/09/18 10:44:03;;;;;;;0.20;0.10;;;;;;;17.71;86.11;100905.88;21124884;27;20063;-75
2022/09/18 10:54:18;;;;;;;0.88;0.25;;;;;;;17.50;86.23;100858.34;21203381;27;20043;-74
2022/09/18 11:04:31;;;;;;;0.77;0.20;;;;;;;17.55;86.29;100869.53;21219698;27;20533;-78
2022/09/18 11:14:42;;;;;;;0.20;0.20;;;;;;;17.68;86.24;100888.16;21201467;27;20051;-75
2022/09/18 11:25:06;;;;;;;0.22;0.20;;;;;;;17.70;86.23;100888.88;21201974;27;20091;-75
2022/09/18 11:35:15;;;;;;;0.20;0.20;;;;;;;17.67;86.16;100887.28;21193365;27;20099;-75
2022/09/18 11:45:43;;;;;;;0.25;0.10;;;;;;;17.58;86.19;100863.03;21167983;27;20103;-75
2022/09/18 11:56:04;;;;;;;0.10;0.10;;;;;;;17.72;86.20;100878.81;21215075;27;20043;-75
2022/09/18 12:06:10;;;;;;;0.43;0.30;;;;;;;17.72;86.15;100878.81;21214380;27;20046;-74
2022/09/18 12:16:21;;;;;;;0.10;0.10;;;;;;;17.72;85.96;100868.06;21197080;27;20039;-75
2022/09/18 12:26:26;;;;;;;0.32;0.10;;;;;;;17.73;85.97;100875.16;21194892;27;20055;-75
2022/09/18 12:36:50;;;;;;;0.45;0.20;;;;;;;17.56;86.09;100844.31;21125677;27;20130;-72
2022/09/18 12:47:12;;;;;;;0.60;0.20;;;;;;;17.72;86.17;100854.59;21212342;27;20055;-72
2022/09/18 12:57:35;;;;;;;0.38;0.10;;;;;;;17.72;85.97;100859.13;21212013;27;20051;-72
2022/09/18 13:08:13;;;;;;;0.25;0.10;;;;;;;17.72;86.12;100854.59;21213070;27;20046;-72
2022/09/18 13:18:24;;;;;;;0.20;0.10;;;;;;;17.72;86.17;100856.41;21203425;27;20047;-72
2022/09/18 13:28:26;;;;;;;0.15;0.10;;;;;;;17.72;86.03;100843.81;21212645;27;20134;-72
2022/09/18 13:38:28;;;;;;;0.65;0.17;;;;;;;17.71;86.09;100855.59;21121037;27;20448;-72
2022/09/18 13:48:41;;;;;;;0.43;0.20;;;;;;;17.71;86.15;100842.13;21227529;27;20046;-72
2022/09/18 13:58:50;;;;;;;0.68;0.25;;;;;;;17.72;86.18;100826.81;21225162;27;20056;-72
2022/09/18 14:08:52;;;;;;;0.17;0.10;;;;;;;17.72;85.95;100843.81;21226463;27;20061;-72
2022/09/18 14:19:00;;;;;;;0.32;0.20;;;;;;;16.81;85.82;100694.72;21223406;27;20441;-72
2022/09/18 14:29:08;;;;;;;0.17;0.10;;;;;;;17.71;86.12;100836.75;21224917;27;20137;-72
2022/09/18 14:39:35;;;;;;;0.10;0.10;;;;;;;17.72;86.20;100827.66;21161668;27;20047;-72
2022/09/18 14:49:42;;;;;;;1.38;0.28;;;;;;;17.71;86.03;100863.66;21222926;27;20077;-72
2022/09/18 14:59:47;;;;;;;0.17;0.17;;;;;;;17.46;86.20;100801.22;21220237;27;20118;-72
2022/09/18 15:09:51;;;;;;;;;;;;;;;17.69;85.93;100817.19;21220260;27;20100;-72
2022/09/18 15:19:58;;;;;;;0.32;0.10;;;;;;;17.69;86.18;100811.78;21218870;27;19923;-72
2022/09/18 15:30:18;;;;;;;0.40;0.40;;;;;;;17.64;86.29;100814.88;21178588;27;20129;-72
2022/09/18 15:40:25;;;;;;;0.10;0.10;;;;;;;17.68;86.07;100816.31;21170417;27;20043;-72
2022/09/18 15:50:30;;;;;;;0.15;0.10;;;;;;;17.69;86.21;100841.41;21200416;27;20054;-72
2022/09/18 16:00:34;;;;;;;0.10;0.10;;;;;;;17.68;86.11;100837.00;21215675;27;20047;-72
2022/09/18 16:10:40;;;;;;;0.10;0.10;;;;;;;17.68;86.21;100832.47;21197627;27;20129;-72
2022/09/18 16:21:00;;;;;;;0.30;0.17;;;;;;;17.38;86.15;100783.06;21215406;27;20043;-72
2022/09/18 16:31:02;;;;;;;0.63;0.20;;;;;;;17.67;86.15;100841.53;21161593;27;20130;-72
2022/09/18 16:41:03;;;;;;;0.43;0.40;;;;;;;17.67;85.99;100836.16;21195369;27;20111;-72
2022/09/18 16:51:05;;;;;;;0.65;0.20;;;;;;;17.66;86.18;100852.41;21211963;27;20402;-72
2022/09/18 17:01:06;;;;;;;0.57;0.20;;;;;;;17.66;86.14;100849.72;21213154;27;20559;-72
2022/09/18 17:11:08;;;;;;;0.15;0.15;;;;;;;17.65;85.90;100894.66;21211474;27;20043;-72
2022/09/18 17:21:11;;;;;;;0.20;0.20;;;;;;;17.65;86.04;100870.44;21226675;27;20096;-72
2022/09/18 17:31:16;;;;;;;0.32;0.10;;;;;;;17.65;86.11;100918.03;21155545;27;20416;-72
2022/09/18 17:41:18;;;;;;;0.45;0.20;;;;;;;17.54;85.90;100938.66;21226881;27;20043;-72
2022/09/18 17:51:20;;;;;;;0.20;0.15;;;;;;;17.65;86.17;100935.03;21227215;27;20713;-72
2022/09/18 18:01:27;;;;;;;0.15;0.10;;;;;;;17.63;86.33;100933.47;21226906;27;20099;-72
2022/09/18 18:11:30;;;;;;;0.25;0.20;;;;;;;17.62;86.09;100913.78;21224537;27;20055;-72
2022/09/18 18:21:32;;;;;;;0.20;0.10;;;;;;;17.39;86.10;100907.69;21223479;27;20078;-72
2022/09/18 18:31:33;;;;;;;0.47;0.10;;;;;;;17.61;86.19;100965.91;21111344;27;20205;-75
2022/09/18 18:41:36;;;;;;;0.40;0.38;;;;;;;17.61;86.04;100959.66;21222268;27;20548;-74
2022/09/18 18:51:42;;;;;;;0.38;0.10;;;;;;;17.60;86.14;100952.56;21203562;27;20054;-75
2022/09/18 19:01:44;;;;;;;0.40;0.28;;;;;;;17.60;86.19;100974.09;21220288;27;20051;-74
2022/09/18 19:11:48;;;;;;;0.28;0.20;;;;;;;17.60;86.10;100998.34;21221091;27;20042;-75
2022/09/18 19:21:50;;;;;;;0.20;0.20;;;;;;;17.56;86.10;100981.63;21217840;27;20071;-75
2022/09/18 19:31:52;;;;;;;0.10;0.10;;;;;;;17.57;86.00;101028.22;21153523;27;20100;-74
2022/09/18 19:42:02;;;;;;;0.10;0.10;;;;;;;17.59;86.15;100996.63;21217302;27;20062;-74
2022/09/18 19:52:14;;;;;;;0.47;0.20;;;;;;;17.55;86.17;100982.59;21216189;27;20505;-75
2022/09/18 20:02:18;;;;;;;0.10;0.10;;;;;;;17.59;86.01;101012.78;21215376;27;20100;-75
2022/09/18 20:12:20;;;;;;;0.30;0.10;;;;;;;17.52;86.05;101017.84;21214688;27;20055;-75
2022/09/18 20:22:22;;;;;;;0.15;0.13;;;;;;;17.58;86.12;101035.31;21172942;27;20452;-75
2022/09/18 20:32:24;;;;;;;0.10;0.10;;;;;;;17.57;86.17;101049.75;21169563;27;20567;-75
2022/09/18 20:42:33;;;;;;;0.38;0.10;;;;;;;17.26;86.00;100994.00;21214418;27;20096;-74
2022/09/18 20:52:36;;;;;;;0.85;0.10;;;;;;;17.56;86.02;101034.59;21213436;27;20067;-75
2022/09/18 21:02:38;;;;;;;0.10;0.10;;;;;;;17.55;86.08;101052.59;21194659;27;20043;-75
2022/09/18 21:12:40;;;;;;;0.20;0.10;;;;;;;17.56;86.18;101050.72;21210939;27;20435;-75
2022/09/18 21:33:07;;;;;;;0.70;0.25;;;;;;;17.46;86.00;101048.81;21212179;27;20047;-75
2022/09/18 21:43:08;;;;;;;0.75;0.22;;;;;;;17.54;86.12;101067.88;21210533;27;20096;-75
2022/09/18 21:53:10;;;;;;;0.20;0.20;;;;;;;17.54;86.02;101078.63;21209574;27;20042;-75
2022/09/18 22:03:14;;;;;;;0.13;0.13;;;;;;;17.54;85.99;101085.88;21217784;27;20388;-75
2022/09/18 22:13:16;;;;;;;0.27;0.20;;;;;;;17.45;86.28;101087.50;21225878;27;20047;-75
2022/09/18 22:23:17;;;;;;;0.90;0.10;;;;;;;17.53;86.11;101108.41;21148457;27;20150;-75
2022/09/18 22:33:19;;;;;;;0.20;0.20;;;;;;;17.53;86.16;101120.00;21222930;27;20406;-75
2022/09/18 22:43:21;;;;;;;0.75;0.30;;;;;;;17.53;86.19;101129.94;21223750;27;20051;-75
2022/09/18 22:53:22;;;;;;;0.17;0.10;;;;;;;17.52;86.27;101131.75;21222338;27;20055;-75
2022/09/18 23:03:24;;;;;;;0.22;0.10;;;;;;;17.52;86.13;101129.06;21220415;27;20055;-75
2022/09/18 23:13:26;;;;;;;0.35;0.17;;;;;;;17.44;86.12;101131.53;21220840;27;20054;-75
2022/09/18 23:23:30;;;;;;;1.48;0.25;;;;;;;17.51;86.09;101143.50;21174336;27;20055;-75
2022/09/18 23:33:31;;;;;;;0.25;0.20;;;;;;;17.51;86.07;101154.28;21219222;27;20074;-74
2022/09/18 23:43:33;;;;;;;0.65;0.20;;;;;;;17.51;85.97;101153.44;21218807;27;20047;-74
2022/09/18 23:53:35;;;;;;;0.45;0.20;;;;;;;17.50;86.01;101157.94;21217328;27;20135;-75
